Time;durP1;ratioP1;P1;durP2;ratioP2;P2;SDS_P1;SDS_P2;PMS_P1;PMS_P2;Temp;Humidity;BMP_temperature;BMP_pressure;BME280_temperature;BME280_humidity;BME280_pressure;Samples;Min_cycle;Max_cycle;Signal;HPM_P1;HPM_P2
2022/01/19 00:01:02;;;;;;;13.47;10.63;;;;;;;;;;5071595;28;20467;-78
2022/01/19 00:03:29;;;;;;;12.53;11.23;;;;;;;;;;5071334;28;20968;-78
2022/01/19 00:05:56;;;;;;;11.20;10.03;;;;;;;;;;5071878;28;20448;-79
2022/01/19 00:08:26;;;;;;;12.00;10.60;;;;;;;;;;5071113;28;20488;-78
2022/01/19 00:10:53;;;;;;;11.00;9.90;;;;;;;;;;5071453;28;20449;-77
2022/01/19 00:13:21;;;;;;;11.10;9.77;;;;;;;;;;5071778;28;20460;-80
2022/01/19 00:15:49;;;;;;;11.77;10.57;;;;;;;;;;5071482;28;20447;-78
2022/01/19 00:18:17;;;;;;;11.37;10.23;;;;;;;;;;5071179;28;20464;-79
2022/01/19 00:20:45;;;;;;;12.03;10.67;;;;;;;;;;5071647;28;20473;-78
2022/01/19 00:23:15;;;;;;;12.97;10.87;;;;;;;;;;5071410;28;20931;-78
2022/01/19 00:25:43;;;;;;;13.80;10.33;;;;;;;;;;5072120;28;20444;-77
2022/01/19 00:28:11;;;;;;;11.20;10.10;;;;;;;;;;5072146;28;20469;-78
2022/01/19 00:30:38;;;;;;;12.80;11.50;;;;;;;;;;5071604;28;20429;-78
2022/01/19 00:33:05;;;;;;;11.80;10.43;;;;;;;;;;5071605;28;20448;-77
2022/01/19 00:35:35;;;;;;;12.40;11.10;;;;;;;;;;5070812;28;20445;-79
2022/01/19 00:38:02;;;;;;;11.37;9.87;;;;;;;;;;5072016;28;20468;-80
2022/01/19 00:40:29;;;;;;;12.93;11.63;;;;;;;;;;5071677;28;20474;-77
2022/01/19 00:42:57;;;;;;;12.57;10.67;;;;;;;;;;5071452;28;20473;-79
2022/01/19 00:45:24;;;;;;;11.53;10.43;;;;;;;;;;5071350;28;20436;-77
2022/01/19 00:47:51;;;;;;;11.83;10.60;;;;;;;;;;5071531;28;20469;-77
2022/01/19 00:50:21;;;;;;;13.17;11.77;;;;;;;;;;5071510;28;20458;-77
2022/01/19 00:52:49;;;;;;;12.47;9.63;;;;;;;;;;5071448;28;20457;-78
2022/01/19 00:55:16;;;;;;;12.20;10.90;;;;;;;;;;5070715;28;20459;-79
2022/01/19 00:57:43;;;;;;;11.90;10.70;;;;;;;;;;5071012;28;20468;-77
2022/01/19 01:00:13;;;;;;;11.60;10.40;;;;;;;;;;5071099;28;20438;-78
2022/01/19 01:02:40;;;;;;;11.77;10.20;;;;;;;;;;5068775;28;20969;-80
2022/01/19 01:05:07;;;;;;;11.67;10.47;;;;;;;;;;5051083;28;20519;-77
2022/01/19 01:07:38;;;;;;;11.30;9.40;;;;;;;;;;5050300;28;20470;-81
2022/01/19 01:10:05;;;;;;;13.40;12.00;;;;;;;;;;5050744;28;20462;-83
2022/01/19 01:12:43;;;;;;;11.00;9.93;;;;;;;;;;5051135;28;20477;-80
2022/01/19 01:15:30;;;;;;;11.60;10.40;;;;;;;;;;5050949;28;20447;-78
2022/01/19 01:20:43;;;;;;;11.40;10.30;;;;;;;;;;5051212;28;20511;-81
2022/01/19 01:23:11;;;;;;;11.10;10.00;;;;;;;;;;5050460;28;20504;-78
2022/01/19 01:25:38;;;;;;;10.80;9.80;;;;;;;;;;5050520;28;20519;-79
2022/01/19 01:28:05;;;;;;;11.67;10.50;;;;;;;;;;5050723;28;20472;-77
2022/01/19 01:30:34;;;;;;;12.00;10.80;;;;;;;;;;5050647;28;20464;-77
2022/01/19 01:33:01;;;;;;;12.77;11.47;;;;;;;;;;5050948;28;20450;-77
2022/01/19 01:35:28;;;;;;;12.80;11.50;;;;;;;;;;5050662;28;20485;-77
2022/01/19 01:37:55;;;;;;;12.40;10.63;;;;;;;;;;5050468;28;20477;-79
2022/01/19 01:40:25;;;;;;;11.43;10.23;;;;;;;;;;5050506;28;20503;-77
2022/01/19 01:42:52;;;;;;;13.53;11.00;;;;;;;;;;5050519;28;20472;-81
2022/01/19 01:45:25;;;;;;;12.20;11.00;;;;;;;;;;5050259;28;20505;-78
2022/01/19 01:48:02;;;;;;;12.13;10.90;;;;;;;;;;5051872;28;20469;-77
2022/01/19 01:53:26;;;;;;;13.73;11.40;;;;;;;;;;5053644;28;20804;-79
2022/01/19 01:55:54;;;;;;;14.80;11.93;;;;;;;;;;5053505;28;20414;-77
2022/01/19 01:58:21;;;;;;;13.10;11.40;;;;;;;;;;5053801;28;20461;-78
2022/01/19 02:00:48;;;;;;;11.93;10.73;;;;;;;;;;5053897;28;20475;-78
2022/01/19 02:03:16;;;;;;;13.17;11.90;;;;;;;;;;5053717;28;20495;-77
2022/01/19 02:05:59;;;;;;;12.80;11.50;;;;;;;;;;5053521;28;20437;-77
2022/01/19 02:08:35;;;;;;;13.27;10.87;;;;;;;;;;5053825;28;20473;-79
2022/01/19 02:11:18;;;;;;;17.87;11.80;;;;;;;;;;5053913;28;20459;-80
2022/01/19 02:16:40;;;;;;;13.00;11.70;;;;;;;;;;5053219;28;20477;-79
2022/01/19 02:21:59;;;;;;;13.13;11.83;;;;;;;;;;5053132;28;20630;-81
2022/01/19 02:24:30;;;;;;;14.17;12.33;;;;;;;;;;5053375;28;20533;-78
2022/01/19 02:27:05;;;;;;;15.40;11.67;;;;;;;;;;5053399;28;20969;-77
2022/01/19 02:40:35;;;;;;;13.20;11.83;;;;;;;;;;5053577;28;20401;-78
2022/01/19 02:43:19;;;;;;;13.03;11.10;;;;;;;;;;5052933;28;20522;-78
2022/01/19 02:51:16;;;;;;;12.87;11.47;;;;;;;;;;5053262;28;20410;-77
2022/01/19 02:53:44;;;;;;;16.13;12.57;;;;;;;;;;5052909;28;20458;-79
2022/01/19 02:56:16;;;;;;;14.13;12.63;;;;;;;;;;5053200;28;20438;-78
2022/01/19 02:58:50;;;;;;;15.37;13.07;;;;;;;;;;5053195;28;20462;-77
2022/01/19 03:09:32;;;;;;;13.10;11.27;;;;;;;;;;5052883;28;20453;-78
2022/01/19 03:11:59;;;;;;;15.30;11.80;;;;;;;;;;5053479;28;20469;-78
2022/01/19 03:14:26;;;;;;;14.03;11.87;;;;;;;;;;5052877;28;20456;-78
2022/01/19 03:16:53;;;;;;;18.37;13.33;;;;;;;;;;5052769;28;20443;-78
2022/01/19 03:19:21;;;;;;;16.50;13.30;;;;;;;;;;5052779;28;20504;-78
2022/01/19 03:21:48;;;;;;;16.50;12.87;;;;;;;;;;5052753;28;20478;-78
2022/01/19 03:24:15;;;;;;;18.50;14.33;;;;;;;;;;5053207;28;20508;-78
2022/01/19 03:26:43;;;;;;;17.07;13.50;;;;;;;;;;5052593;28;20450;-78
2022/01/19 03:29:10;;;;;;;22.10;15.20;;;;;;;;;;5052280;28;20466;-78
2022/01/19 03:31:37;;;;;;;21.50;15.40;;;;;;;;;;5053160;28;20868;-78
2022/01/19 03:34:05;;;;;;;20.67;15.13;;;;;;;;;;5052878;28;20956;-78
2022/01/19 03:36:32;;;;;;;19.97;16.17;;;;;;;;;;5053428;28;20445;-77
2022/01/19 03:39:00;;;;;;;21.47;16.60;;;;;;;;;;5052991;28;20866;-77
2022/01/19 03:41:27;;;;;;;18.83;16.57;;;;;;;;;;5055768;28;20891;-78
2022/01/19 03:43:55;;;;;;;24.43;17.00;;;;;;;;;;5056721;28;20473;-79
2022/01/19 03:46:32;;;;;;;23.70;16.40;;;;;;;;;;5054136;28;20516;-77
2022/01/19 03:49:09;;;;;;;27.03;17.30;;;;;;;;;;5071927;28;20442;-79
2022/01/19 03:51:36;;;;;;;21.90;16.87;;;;;;;;;;5070879;28;20433;-77
2022/01/19 03:54:03;;;;;;;21.80;16.60;;;;;;;;;;5055059;28;20446;-77
2022/01/19 03:56:30;;;;;;;21.60;16.13;;;;;;;;;;5054481;28;20480;-78
2022/01/19 03:58:58;;;;;;;21.97;15.83;;;;;;;;;;5063587;28;20519;-78
2022/01/19 04:01:26;;;;;;;23.57;15.63;;;;;;;;;;5069396;28;20509;-78
2022/01/19 04:04:27;;;;;;;22.00;16.10;;;;;;;;;;5068748;28;20446;-81
2022/01/19 04:07:01;;;;;;;22.27;15.17;;;;;;;;;;5071553;28;20672;-81
2022/01/19 04:09:28;;;;;;;22.83;16.70;;;;;;;;;;5063916;28;20449;-79
2022/01/19 04:11:56;;;;;;;17.80;15.00;;;;;;;;;;5051967;28;20446;-79
2022/01/19 04:14:25;;;;;;;17.70;15.87;;;;;;;;;;5051091;28;20453;-79
2022/01/19 04:16:53;;;;;;;20.77;16.23;;;;;;;;;;5051019;28;20449;-77
2022/01/19 04:19:27;;;;;;;26.57;17.30;;;;;;;;;;5051525;28;20461;-79
2022/01/19 04:21:54;;;;;;;22.80;16.67;;;;;;;;;;5050687;28;20470;-79
2022/01/19 04:24:22;;;;;;;21.23;15.80;;;;;;;;;;5051476;28;20440;-79
2022/01/19 04:26:58;;;;;;;22.93;16.00;;;;;;;;;;5051590;28;20553;-78
2022/01/19 04:29:27;;;;;;;19.67;16.00;;;;;;;;;;5051325;28;20462;-78
2022/01/19 04:31:54;;;;;;;18.90;15.90;;;;;;;;;;5051214;28;20446;-77
2022/01/19 04:34:22;;;;;;;19.07;15.73;;;;;;;;;;5051020;28;20434;-79
2022/01/19 04:37:21;;;;;;;18.87;15.47;;;;;;;;;;5051263;28;20923;-78
2022/01/19 04:48:18;;;;;;;18.93;15.40;;;;;;;;;;5051022;28;20460;-77
2022/01/19 05:01:51;;;;;;;16.70;14.20;;;;;;;;;;5050958;28;20458;-78
2022/01/19 05:04:30;;;;;;;18.87;13.50;;;;;;;;;;5050823;28;20473;-77
2022/01/19 05:07:09;;;;;;;34.97;24.90;;;;;;;;;;5051102;28;20448;-77
2022/01/19 05:15:07;;;;;;;16.93;14.13;;;;;;;;;;5050019;28;20429;-77
2022/01/19 05:17:37;;;;;;;19.87;15.20;;;;;;;;;;5050686;28;20478;-77
2022/01/19 05:20:04;;;;;;;17.53;14.20;;;;;;;;;;5050946;28;20521;-77
2022/01/19 05:22:31;;;;;;;18.63;15.50;;;;;;;;;;5055621;28;20474;-78
2022/01/19 05:24:58;;;;;;;20.20;15.07;;;;;;;;;;5054068;28;20937;-80
2022/01/19 05:27:25;;;;;;;20.93;15.10;;;;;;;;;;5053655;28;20454;-77
2022/01/19 05:29:52;;;;;;;16.40;14.10;;;;;;;;;;5053988;28;20457;-79
2022/01/19 05:32:20;;;;;;;23.20;15.57;;;;;;;;;;5053189;28;20994;-78
2022/01/19 05:34:48;;;;;;;18.53;15.30;;;;;;;;;;5054170;28;20450;-78
2022/01/19 05:37:15;;;;;;;23.30;15.80;;;;;;;;;;5054720;28;20458;-78
2022/01/19 05:39:42;;;;;;;19.57;14.70;;;;;;;;;;5054600;28;20472;-77
2022/01/19 05:42:14;;;;;;;18.33;14.10;;;;;;;;;;5054100;28;20634;-77
2022/01/19 05:44:43;;;;;;;16.80;15.00;;;;;;;;;;5053644;28;20422;-77
2022/01/19 05:47:10;;;;;;;20.13;15.60;;;;;;;;;;5054038;28;20823;-78
2022/01/19 05:49:37;;;;;;;20.27;15.37;;;;;;;;;;5053811;28;20442;-78
2022/01/19 05:52:06;;;;;;;22.00;14.37;;;;;;;;;;5057850;28;20438;-78
2022/01/19 05:54:33;;;;;;;20.00;15.33;;;;;;;;;;5054284;28;20434;-77
2022/01/19 05:57:00;;;;;;;20.13;16.27;;;;;;;;;;5056194;28;20441;-77
2022/01/19 05:59:27;;;;;;;21.60;15.87;;;;;;;;;;5056130;28;20953;-77
2022/01/19 06:01:55;;;;;;;25.10;17.10;;;;;;;;;;5054787;28;20489;-77
2022/01/19 06:04:22;;;;;;;23.40;16.90;;;;;;;;;;5055163;28;20442;-77
2022/01/19 06:06:52;;;;;;;24.50;19.57;;;;;;;;;;5054077;28;21021;-78
2022/01/19 06:09:34;;;;;;;26.10;19.33;;;;;;;;;;5054849;28;20508;-77
2022/01/19 06:12:03;;;;;;;22.03;16.90;;;;;;;;;;5054304;28;20937;-77
2022/01/19 06:14:30;;;;;;;21.97;16.37;;;;;;;;;;5053952;28;20481;-79
2022/01/19 06:16:57;;;;;;;21.20;17.07;;;;;;;;;;5060742;28;20441;-78
2022/01/19 06:19:24;;;;;;;23.90;17.13;;;;;;;;;;5067805;28;20461;-78
2022/01/19 06:21:51;;;;;;;26.27;17.00;;;;;;;;;;5066548;28;20437;-79
2022/01/19 06:24:18;;;;;;;27.50;19.10;;;;;;;;;;5067333;28;20438;-78
2022/01/19 06:26:46;;;;;;;23.63;17.20;;;;;;;;;;5065266;28;20476;-80
2022/01/19 06:29:13;;;;;;;23.30;17.03;;;;;;;;;;5055443;28;20496;-79
2022/01/19 06:31:40;;;;;;;24.23;18.13;;;;;;;;;;5055660;28;20442;-76
2022/01/19 06:34:08;;;;;;;23.30;17.10;;;;;;;;;;5055235;28;20469;-78
2022/01/19 06:36:35;;;;;;;22.23;17.63;;;;;;;;;;5056050;28;20442;-78
2022/01/19 06:39:02;;;;;;;22.90;17.77;;;;;;;;;;5061524;28;20446;-76
2022/01/19 06:41:29;;;;;;;48.73;38.60;;;;;;;;;;5077619;28;20460;-77
2022/01/19 06:43:58;;;;;;;47.10;29.30;;;;;;;;;;5077741;28;20465;-78
2022/01/19 06:46:25;;;;;;;29.03;22.87;;;;;;;;;;5077164;28;20426;-79
2022/01/19 06:48:52;;;;;;;24.40;18.77;;;;;;;;;;5076709;28;20473;-75
2022/01/19 06:51:19;;;;;;;23.67;16.70;;;;;;;;;;5078349;28;20425;-77
2022/01/19 06:53:46;;;;;;;25.40;18.07;;;;;;;;;;5077968;28;20427;-78
2022/01/19 06:56:13;;;;;;;21.53;18.17;;;;;;;;;;5078908;28;20436;-76
2022/01/19 06:58:40;;;;;;;24.07;17.77;;;;;;;;;;5078899;28;20479;-75
2022/01/19 07:01:08;;;;;;;28.00;17.47;;;;;;;;;;5078533;28;20588;-76
2022/01/19 07:03:35;;;;;;;21.97;17.60;;;;;;;;;;5078613;28;20480;-76
2022/01/19 07:06:02;;;;;;;29.07;18.90;;;;;;;;;;5094928;28;20429;-76
2022/01/19 07:08:30;;;;;;;25.40;19.00;;;;;;;;;;5093657;28;20445;-75
2022/01/19 07:10:57;;;;;;;28.83;18.73;;;;;;;;;;5097952;28;20467;-76
2022/01/19 07:13:24;;;;;;;26.27;18.30;;;;;;;;;;5096974;28;20468;-79
2022/01/19 07:15:51;;;;;;;23.93;19.27;;;;;;;;;;5090614;28;20441;-79
2022/01/19 07:18:19;;;;;;;23.83;17.60;;;;;;;;;;5086603;28;20503;-78
2022/01/19 07:20:46;;;;;;;21.60;16.83;;;;;;;;;;5086670;28;20442;-78
2022/01/19 07:23:13;;;;;;;22.10;16.83;;;;;;;;;;5087017;28;20492;-78
2022/01/19 07:25:40;;;;;;;22.27;18.47;;;;;;;;;;5082529;28;20446;-77
2022/01/19 07:28:11;;;;;;;23.93;18.33;;;;;;;;;;5074247;28;20453;-79
2022/01/19 07:30:38;;;;;;;24.03;19.37;;;;;;;;;;5074061;28;20944;-79
2022/01/19 07:33:05;;;;;;;21.93;17.00;;;;;;;;;;5074723;28;20442;-79
2022/01/19 07:35:33;;;;;;;22.70;18.17;;;;;;;;;;5074039;28;20429;-78
2022/01/19 07:38:00;;;;;;;21.30;18.17;;;;;;;;;;5074511;28;20469;-80
2022/01/19 07:40:27;;;;;;;26.03;16.80;;;;;;;;;;5071119;28;20457;-78
2022/01/19 07:42:55;;;;;;;26.60;17.30;;;;;;;;;;5072076;28;20492;-79
2022/01/19 07:45:22;;;;;;;23.53;17.43;;;;;;;;;;5073557;28;20454;-80
2022/01/19 07:47:49;;;;;;;24.50;18.50;;;;;;;;;;5074531;28;20461;-81
2022/01/19 07:50:16;;;;;;;26.63;18.63;;;;;;;;;;5074156;28;20445;-78
2022/01/19 07:52:45;;;;;;;24.50;18.47;;;;;;;;;;5073172;28;20839;-78
2022/01/19 07:55:12;;;;;;;26.43;18.63;;;;;;;;;;5072436;28;20483;-80
2022/01/19 07:57:40;;;;;;;24.90;18.57;;;;;;;;;;5072912;28;20461;-79
2022/01/19 08:00:08;;;;;;;25.17;18.07;;;;;;;;;;5072736;28;20476;-77
2022/01/19 08:02:35;;;;;;;26.00;18.73;;;;;;;;;;5072965;28;20492;-79
2022/01/19 08:05:03;;;;;;;29.47;20.07;;;;;;;;;;5073221;28;20438;-78
2022/01/19 08:07:30;;;;;;;30.70;20.40;;;;;;;;;;5080322;28;20481;-83
2022/01/19 08:09:58;;;;;;;30.90;23.60;;;;;;;;;;5074233;28;20453;-79
2022/01/19 08:12:25;;;;;;;20.33;16.90;;;;;;;;;;5074760;28;20452;-80
2022/01/19 08:14:53;;;;;;;25.00;18.80;;;;;;;;;;5068675;28;20508;-80
2022/01/19 08:17:20;;;;;;;22.13;17.97;;;;;;;;;;5054874;28;20465;-78
2022/01/19 08:19:48;;;;;;;28.40;20.27;;;;;;;;;;5055027;28;20454;-77
2022/01/19 08:22:15;;;;;;;24.27;20.20;;;;;;;;;;5058154;28;20446;-80
2022/01/19 08:24:42;;;;;;;22.63;16.87;;;;;;;;;;5055044;28;20461;-79
2022/01/19 08:27:11;;;;;;;21.27;16.60;;;;;;;;;;5054726;28;20465;-84
2022/01/19 08:29:38;;;;;;;18.73;15.70;;;;;;;;;;5054782;28;20841;-80
2022/01/19 08:32:05;;;;;;;18.97;15.97;;;;;;;;;;5055070;28;20446;-80
2022/01/19 08:34:32;;;;;;;21.00;16.50;;;;;;;;;;5054471;28;20434;-80
2022/01/19 08:37:00;;;;;;;20.10;15.80;;;;;;;;;;5054219;28;20508;-80
2022/01/19 08:39:27;;;;;;;20.93;15.20;;;;;;;;;;5061467;28;20510;-79
2022/01/19 08:41:55;;;;;;;18.73;16.13;;;;;;;;;;5073152;28;20449;-80
2022/01/19 08:44:23;;;;;;;22.50;16.00;;;;;;;;;;5061872;28;20482;-78
2022/01/19 08:46:50;;;;;;;19.53;16.63;;;;;;;;;;5052990;28;20951;-80
2022/01/19 08:49:17;;;;;;;21.03;15.60;;;;;;;;;;5053311;28;20448;-82
2022/01/19 08:51:44;;;;;;;16.47;14.73;;;;;;;;;;5053225;28;20446;-79
2022/01/19 08:54:11;;;;;;;17.10;15.37;;;;;;;;;;5052440;28;20435;-80
2022/01/19 08:56:38;;;;;;;18.50;16.27;;;;;;;;;;5052898;28;20864;-79
2022/01/19 08:59:05;;;;;;;17.70;15.67;;;;;;;;;;5053046;28;20474;-78
2022/01/19 09:01:34;;;;;;;22.63;16.43;;;;;;;;;;5052787;28;20451;-79
2022/01/19 09:04:01;;;;;;;16.70;14.70;;;;;;;;;;5052391;28;20528;-79
2022/01/19 09:06:28;;;;;;;18.97;15.90;;;;;;;;;;5054866;28;20447;-78
2022/01/19 09:08:55;;;;;;;17.33;15.10;;;;;;;;;;5054483;28;20517;-82
2022/01/19 09:11:22;;;;;;;18.30;14.83;;;;;;;;;;5052853;28;20435;-82
2022/01/19 09:13:49;;;;;;;18.73;14.93;;;;;;;;;;5052179;28;20538;-79
2022/01/19 09:16:17;;;;;;;19.07;15.60;;;;;;;;;;5052585;28;20446;-80
2022/01/19 09:18:45;;;;;;;18.83;15.43;;;;;;;;;;5053067;28;20473;-78
2022/01/19 09:21:12;;;;;;;18.60;15.53;;;;;;;;;;5052741;28;20523;-81
2022/01/19 09:23:39;;;;;;;16.47;14.87;;;;;;;;;;5052450;28;20477;-77
2022/01/19 09:26:06;;;;;;;17.60;14.30;;;;;;;;;;5051822;28;20426;-78
2022/01/19 09:28:33;;;;;;;18.63;15.40;;;;;;;;;;5052291;28;20454;-79
2022/01/19 09:31:02;;;;;;;19.67;15.67;;;;;;;;;;5052063;28;20446;-76
2022/01/19 09:33:30;;;;;;;17.50;14.83;;;;;;;;;;5050808;28;20857;-79
2022/01/19 09:36:18;;;;;;;16.30;14.60;;;;;;;;;;5051297;28;20450;-77
2022/01/19 09:38:45;;;;;;;23.23;14.70;;;;;;;;;;5051829;28;20474;-77
2022/01/19 09:41:12;;;;;;;15.80;14.13;;;;;;;;;;5051311;28;20454;-79
2022/01/19 09:43:39;;;;;;;19.70;15.47;;;;;;;;;;5050848;28;20472;-78
2022/01/19 09:46:06;;;;;;;19.07;16.00;;;;;;;;;;5051115;28;20442;-77
2022/01/19 09:48:34;;;;;;;18.30;14.90;;;;;;;;;;5051056;28;21126;-78
2022/01/19 09:51:02;;;;;;;17.07;15.23;;;;;;;;;;5051390;28;20476;-78
2022/01/19 09:53:30;;;;;;;16.80;14.33;;;;;;;;;;5051166;28;20541;-77
2022/01/19 09:55:57;;;;;;;17.07;14.17;;;;;;;;;;5052504;28;20446;-78
2022/01/19 09:58:24;;;;;;;18.67;15.40;;;;;;;;;;5051258;28;20470;-78
2022/01/19 10:00:51;;;;;;;17.90;15.13;;;;;;;;;;5051421;28;20771;-79
2022/01/19 10:03:19;;;;;;;18.40;15.30;;;;;;;;;;5051205;28;20480;-79
2022/01/19 10:05:57;;;;;;;16.90;14.63;;;;;;;;;;5051528;28;20548;-81
2022/01/19 10:08:30;;;;;;;15.70;14.10;;;;;;;;;;5052351;28;20476;-78
2022/01/19 10:11:13;;;;;;;15.70;14.00;;;;;;;;;;5054623;28;20454;-80
2022/01/19 10:19:13;;;;;;;15.40;13.83;;;;;;;;;;5054563;28;20971;-79
2022/01/19 10:21:55;;;;;;;18.30;14.97;;;;;;;;;;5054683;28;20441;-78
2022/01/19 10:24:34;;;;;;;16.37;14.07;;;;;;;;;;5054336;28;20507;-77
2022/01/19 10:27:20;;;;;;;16.47;14.30;;;;;;;;;;5054311;28;20422;-79
2022/01/19 10:29:47;;;;;;;17.40;15.53;;;;;;;;;;5054474;28;20437;-79
2022/01/19 10:32:15;;;;;;;15.40;14.00;;;;;;;;;;5054482;28;20461;-79
2022/01/19 10:34:42;;;;;;;15.27;13.77;;;;;;;;;;5054251;28;20450;-77
2022/01/19 10:37:09;;;;;;;15.60;14.03;;;;;;;;;;5054290;28;20517;-78
2022/01/19 10:39:41;;;;;;;14.10;12.73;;;;;;;;;;5054356;28;20439;-78
2022/01/19 10:42:10;;;;;;;16.83;15.13;;;;;;;;;;5055294;28;20459;-79
2022/01/19 10:44:38;;;;;;;19.00;15.10;;;;;;;;;;5054145;28;20568;-79
2022/01/19 10:47:06;;;;;;;19.80;16.30;;;;;;;;;;5069634;28;20480;-78
2022/01/19 10:49:47;;;;;;;16.70;14.90;;;;;;;;;;5074196;28;20445;-78
2022/01/19 10:52:26;;;;;;;16.57;14.90;;;;;;;;;;5074205;28;20899;-79
2022/01/19 10:54:57;;;;;;;17.30;15.50;;;;;;;;;;5074762;28;20517;-79
2022/01/19 10:57:24;;;;;;;15.30;13.70;;;;;;;;;;5074205;28;20464;-78
2022/01/19 10:59:51;;;;;;;16.97;15.20;;;;;;;;;;5074068;28;20952;-78
2022/01/19 11:02:19;;;;;;;18.30;14.30;;;;;;;;;;5074464;28;20454;-79
2022/01/19 11:04:46;;;;;;;17.47;15.67;;;;;;;;;;5074847;28;20576;-78
2022/01/19 11:07:15;;;;;;;17.20;15.40;;;;;;;;;;5075597;28;20465;-79
2022/01/19 11:09:45;;;;;;;16.00;14.20;;;;;;;;;;5074849;28;20460;-79
2022/01/19 11:12:16;;;;;;;15.83;14.30;;;;;;;;;;5074489;28;20499;-78
2022/01/19 11:14:45;;;;;;;16.10;14.37;;;;;;;;;;5075004;28;20448;-79
2022/01/19 11:17:12;;;;;;;16.87;15.00;;;;;;;;;;5075001;28;20835;-77
2022/01/19 11:19:39;;;;;;;16.20;14.60;;;;;;;;;;5074856;28;20495;-79
2022/01/19 11:22:30;;;;;;;16.57;14.93;;;;;;;;;;5075443;28;20446;-78
2022/01/19 11:25:02;;;;;;;17.40;15.60;;;;;;;;;;5075497;28;20510;-79
2022/01/19 11:27:36;;;;;;;18.40;14.90;;;;;;;;;;5074333;28;20480;-75
2022/01/19 11:30:14;;;;;;;17.60;14.40;;;;;;;;;;5053653;28;21096;-77
2022/01/19 11:32:41;;;;;;;19.30;15.40;;;;;;;;;;5053612;28;20530;-79
2022/01/19 11:35:09;;;;;;;16.60;14.93;;;;;;;;;;5053406;28;20472;-78
2022/01/19 11:37:37;;;;;;;16.90;14.03;;;;;;;;;;5053004;28;20544;-79
2022/01/19 11:40:06;;;;;;;18.50;14.90;;;;;;;;;;5052917;28;20446;-80
2022/01/19 11:42:35;;;;;;;16.33;14.60;;;;;;;;;;5053382;28;20445;-79
2022/01/19 11:45:02;;;;;;;19.07;13.83;;;;;;;;;;5053201;28;20481;-79
2022/01/19 11:47:31;;;;;;;16.90;14.60;;;;;;;;;;5052879;28;20469;-79
2022/01/19 11:49:59;;;;;;;16.87;14.80;;;;;;;;;;5053374;28;20442;-78
2022/01/19 11:52:31;;;;;;;16.07;14.37;;;;;;;;;;5053126;28;20450;-78
2022/01/19 11:55:11;;;;;;;16.60;15.00;;;;;;;;;;5053538;28;20435;-80
2022/01/19 11:57:40;;;;;;;17.20;14.97;;;;;;;;;;5052800;28;20469;-78
2022/01/19 12:00:09;;;;;;;21.43;14.10;;;;;;;;;;5053314;28;20442;-79
2022/01/19 12:02:38;;;;;;;22.53;16.07;;;;;;;;;;5052947;28;20441;-79
2022/01/19 12:05:32;;;;;;;17.23;15.07;;;;;;;;;;5052434;28;20806;-81
2022/01/19 12:08:00;;;;;;;17.30;15.50;;;;;;;;;;5017147;28;20832;-80
2022/01/19 12:10:43;;;;;;;18.70;14.77;;;;;;;;;;5052388;28;20453;-80
2022/01/19 12:13:42;;;;;;;18.27;14.40;;;;;;;;;;5052472;28;20426;-78
2022/01/19 12:16:18;;;;;;;15.33;13.73;;;;;;;;;;5052657;28;20457;-80
2022/01/19 12:18:47;;;;;;;15.53;13.70;;;;;;;;;;5052597;28;20747;-78
2022/01/19 12:21:16;;;;;;;15.53;12.23;;;;;;;;;;5052759;28;20425;-80
2022/01/19 12:23:44;;;;;;;16.20;12.70;;;;;;;;;;5052365;28;20500;-82
2022/01/19 12:26:11;;;;;;;16.20;12.67;;;;;;;;;;5052815;28;20442;-80
2022/01/19 12:28:41;;;;;;;14.70;13.20;;;;;;;;;;5053299;28;20492;-78
2022/01/19 12:31:26;;;;;;;13.50;12.20;;;;;;;;;;5052648;28;20446;-80
2022/01/19 12:34:13;;;;;;;14.83;13.43;;;;;;;;;;5052840;28;20527;-77
2022/01/19 12:36:44;;;;;;;14.70;12.03;;;;;;;;;;5052990;28;20576;-79
2022/01/19 12:39:30;;;;;;;14.00;12.50;;;;;;;;;;5052328;28;20478;-78
2022/01/19 12:41:59;;;;;;;14.50;11.67;;;;;;;;;;5052404;28;20975;-78
2022/01/19 12:44:41;;;;;;;14.50;11.10;;;;;;;;;;5052404;28;20564;-80
2022/01/19 12:47:37;;;;;;;15.23;11.77;;;;;;;;;;5052468;28;20480;-78
2022/01/19 12:50:19;;;;;;;13.07;11.63;;;;;;;;;;5052216;28;20858;-79
2022/01/19 12:52:48;;;;;;;14.03;11.80;;;;;;;;;;5053139;28;20949;-79
2022/01/19 12:55:16;;;;;;;12.33;11.13;;;;;;;;;;5052984;28;20446;-78
2022/01/19 12:57:43;;;;;;;13.90;11.67;;;;;;;;;;5052866;28;20455;-79
2022/01/19 13:00:14;;;;;;;12.50;11.40;;;;;;;;;;5053472;28;20579;-77
2022/01/19 13:02:41;;;;;;;12.70;11.37;;;;;;;;;;5052744;28;20437;-78
2022/01/19 13:05:09;;;;;;;84.73;52.53;;;;;;;;;;5052130;28;20478;-78
2022/01/19 13:07:39;;;;;;;23.90;20.07;;;;;;;;;;5057011;28;20466;-78
2022/01/19 13:10:12;;;;;;;14.97;12.57;;;;;;;;;;5060161;28;20481;-78
2022/01/19 13:12:44;;;;;;;11.87;10.70;;;;;;;;;;5061134;28;20450;-79
2022/01/19 13:15:13;;;;;;;11.33;10.10;;;;;;;;;;5060696;28;20955;-78
2022/01/19 13:17:41;;;;;;;10.50;9.50;;;;;;;;;;5059639;28;20469;-78
2022/01/19 13:20:09;;;;;;;11.30;10.10;;;;;;;;;;5052513;28;20457;-78
2022/01/19 13:22:43;;;;;;;14.27;10.00;;;;;;;;;;5052038;28;20454;-79
2022/01/19 13:25:15;;;;;;;12.20;11.00;;;;;;;;;;5052372;28;20522;-78
2022/01/19 13:27:43;;;;;;;12.23;10.97;;;;;;;;;;5051960;28;20996;-79
2022/01/19 13:30:14;;;;;;;12.07;10.87;;;;;;;;;;5051113;28;21009;-79
2022/01/19 13:32:41;;;;;;;12.87;11.50;;;;;;;;;;5051467;28;20797;-78
2022/01/19 13:35:09;;;;;;;10.97;9.97;;;;;;;;;;5051197;28;20446;-79
2022/01/19 13:37:37;;;;;;;11.90;10.70;;;;;;;;;;5050809;28;20474;-79
2022/01/19 13:40:07;;;;;;;13.57;12.07;;;;;;;;;;5051359;28;20481;-79
2022/01/19 13:42:37;;;;;;;13.03;11.00;;;;;;;;;;5051969;28;20496;-79
2022/01/19 13:45:09;;;;;;;11.27;10.27;;;;;;;;;;5053941;28;20918;-80
2022/01/19 13:47:53;;;;;;;12.20;11.00;;;;;;;;;;5055265;28;20504;-78
2022/01/19 13:50:21;;;;;;;13.20;11.00;;;;;;;;;;5055207;28;20457;-79
2022/01/19 13:52:48;;;;;;;11.70;10.60;;;;;;;;;;5054931;28;20445;-79
2022/01/19 13:55:19;;;;;;;10.47;9.37;;;;;;;;;;5055333;28;20445;-78
2022/01/19 13:57:46;;;;;;;11.00;9.03;;;;;;;;;;5054984;28;20507;-78
2022/01/19 14:00:15;;;;;;;9.93;9.00;;;;;;;;;;5054902;28;20828;-79
2022/01/19 14:02:42;;;;;;;9.97;9.07;;;;;;;;;;5054989;28;20510;-77
2022/01/19 14:05:11;;;;;;;12.00;9.70;;;;;;;;;;5055310;28;20492;-80
2022/01/19 14:07:46;;;;;;;11.37;9.43;;;;;;;;;;5054410;28;20980;-79
2022/01/19 14:10:13;;;;;;;8.70;7.83;;;;;;;;;;5054938;28;20466;-79
2022/01/19 14:12:41;;;;;;;10.10;8.97;;;;;;;;;;5055079;28;20443;-79
2022/01/19 14:15:11;;;;;;;8.77;7.97;;;;;;;;;;5055034;28;20469;-80
2022/01/19 14:17:41;;;;;;;9.60;8.60;;;;;;;;;;5055151;28;20555;-79
2022/01/19 14:20:19;;;;;;;8.20;7.40;;;;;;;;;;5054544;28;20482;-78
2022/01/19 14:22:46;;;;;;;8.57;7.67;;;;;;;;;;5054130;28;20919;-77
2022/01/19 14:25:17;;;;;;;7.83;7.13;;;;;;;;;;5055014;28;20481;-78
2022/01/19 14:27:46;;;;;;;8.47;7.20;;;;;;;;;;5054956;28;20523;-79
2022/01/19 14:30:18;;;;;;;7.90;7.03;;;;;;;;;;5054939;28;20445;-81
2022/01/19 14:32:46;;;;;;;9.23;7.70;;;;;;;;;;5054971;28;20521;-79
2022/01/19 14:35:26;;;;;;;8.63;6.50;;;;;;;;;;5054864;28;20441;-77
2022/01/19 14:37:58;;;;;;;8.17;6.63;;;;;;;;;;5054958;28;21046;-79
2022/01/19 14:40:25;;;;;;;6.60;5.97;;;;;;;;;;5059773;28;20453;-78
2022/01/19 14:42:53;;;;;;;7.07;6.37;;;;;;;;;;5065193;28;20995;-78
2022/01/19 14:45:24;;;;;;;7.77;7.00;;;;;;;;;;5057635;28;20482;-79
2022/01/19 14:47:54;;;;;;;7.63;6.97;;;;;;;;;;5054475;28;20470;-80
2022/01/19 14:50:22;;;;;;;9.03;7.20;;;;;;;;;;5054393;28;20460;-79
2022/01/19 14:52:52;;;;;;;8.53;7.53;;;;;;;;;;5053735;28;20487;-78
2022/01/19 14:55:19;;;;;;;7.77;7.00;;;;;;;;;;5053305;28;20940;-79
2022/01/19 14:57:47;;;;;;;8.10;7.40;;;;;;;;;;5053982;28;20462;-78
2022/01/19 15:00:15;;;;;;;8.93;7.60;;;;;;;;;;5053651;28;21014;-79
2022/01/19 15:02:43;;;;;;;8.23;7.43;;;;;;;;;;5053733;28;20488;-79
2022/01/19 15:05:10;;;;;;;8.10;7.30;;;;;;;;;;5053939;28;20488;-79
2022/01/19 15:07:40;;;;;;;8.60;7.73;;;;;;;;;;5053956;28;20516;-78
2022/01/19 15:10:09;;;;;;;9.90;8.10;;;;;;;;;;5053499;28;20938;-78
2022/01/19 15:12:37;;;;;;;8.90;8.00;;;;;;;;;;5053272;28;20450;-78
2022/01/19 15:15:05;;;;;;;12.40;8.50;;;;;;;;;;5053802;28;20853;-78
2022/01/19 15:17:32;;;;;;;10.00;9.00;;;;;;;;;;5053982;28;20458;-79
2022/01/19 15:19:59;;;;;;;10.30;9.20;;;;;;;;;;5053928;28;20442;-78
2022/01/19 15:22:26;;;;;;;10.33;9.03;;;;;;;;;;5053136;28;20495;-78
2022/01/19 15:24:54;;;;;;;10.77;9.37;;;;;;;;;;5059769;28;20538;-79
2022/01/19 15:27:23;;;;;;;12.90;10.20;;;;;;;;;;5073477;28;20540;-79
2022/01/19 15:29:50;;;;;;;9.90;9.03;;;;;;;;;;5074032;28;20448;-78
2022/01/19 15:32:17;;;;;;;10.03;9.03;;;;;;;;;;5073742;28;20471;-78
2022/01/19 15:34:44;;;;;;;13.20;10.57;;;;;;;;;;5073338;28;20445;-78
2022/01/19 15:37:11;;;;;;;13.10;10.90;;;;;;;;;;5073696;28;20461;-79
2022/01/19 15:39:40;;;;;;;10.93;9.73;;;;;;;;;;5073777;28;20537;-77
2022/01/19 15:42:07;;;;;;;10.70;9.60;;;;;;;;;;5073942;28;20445;-78